sensor_id;sensor_type;location;lat;lon;timestamp;pressure;altitude;pressure_sealevel;temperature;humidity
13124;BME280;6627;50.920;12.050;2023-04-26T00:01:58;98151.97;;;13.21;45.87
13124;BME280;6627;50.920;12.050;2023-04-26T00:04:25;98281.19;;;14.23;44.38
13124;BME280;6627;50.920;12.050;2023-04-26T00:06:55;98148.25;;;13.25;45.36
13124;BME280;6627;50.920;12.050;2023-04-26T00:09:22;98153.41;;;13.18;45.88
13124;BME280;6627;50.920;12.050;2023-04-26T00:11:49;98257.44;;;13.78;45.92
13124;BME280;6627;50.920;12.050;2023-04-26T00:14:17;98215.50;;;13.58;45.96
13124;BME280;6627;50.920;12.050;2023-04-26T00:16:44;98155.66;;;13.16;46.10
13124;BME280;6627;50.920;12.050;2023-04-26T00:19:11;98208.63;;;13.40;46.38
13124;BME280;6627;50.920;12.050;2023-04-26T00:21:39;98154.31;;;12.80;47.55
13124;BME280;6627;50.920;12.050;2023-04-26T00:24:08;98133.72;;;12.79;47.48
13124;BME280;6627;50.920;12.050;2023-04-26T00:26:35;98142.78;;;12.83;47.59
13124;BME280;6627;50.920;12.050;2023-04-26T00:29:03;98121.97;;;12.67;48.04
13124;BME280;6627;50.920;12.050;2023-04-26T00:31:31;98141.94;;;12.92;47.25
13124;BME280;6627;50.920;12.050;2023-04-26T00:33:58;98145.03;;;12.81;47.40
13124;BME280;6627;50.920;12.050;2023-04-26T00:36:26;98099.56;;;12.49;47.99
13124;BME280;6627;50.920;12.050;2023-04-26T00:38:53;98065.34;;;12.27;48.00
13124;BME280;6627;50.920;12.050;2023-04-26T00:41:22;98079.59;;;12.15;48.87
13124;BME280;6627;50.920;12.050;2023-04-26T00:43:50;98237.25;;;13.16;47.53
13124;BME280;6627;50.920;12.050;2023-04-26T00:46:18;98117.16;;;12.43;47.98
13124;BME280;6627;50.920;12.050;2023-04-26T00:48:47;98160.06;;;12.58;48.11
13124;BME280;6627;50.920;12.050;2023-04-26T00:51:14;98141.34;;;12.56;47.83
13124;BME280;6627;50.920;12.050;2023-04-26T00:53:41;98092.63;;;12.30;47.86
13124;BME280;6627;50.920;12.050;2023-04-26T00:56:09;98086.50;;;12.04;48.81
13124;BME280;6627;50.920;12.050;2023-04-26T00:58:39;98170.16;;;12.49;48.62
13124;BME280;6627;50.920;12.050;2023-04-26T01:01:06;98155.16;;;12.43;48.16
13124;BME280;6627;50.920;12.050;2023-04-26T01:03:33;98144.16;;;12.39;47.96
13124;BME280;6627;50.920;12.050;2023-04-26T01:06:00;98204.38;;;12.79;47.37
13124;BME280;6627;50.920;12.050;2023-04-26T01:08:28;98270.16;;;13.23;46.64
13124;BME280;6627;50.920;12.050;2023-04-26T01:10:55;98268.44;;;13.40;45.82
13124;BME280;6627;50.920;12.050;2023-04-26T01:13:24;98349.38;;;14.14;44.37
13124;BME280;6627;50.920;12.050;2023-04-26T01:15:54;98413.38;;;14.62;43.75
13124;BME280;6627;50.920;12.050;2023-04-26T01:18:22;98215.78;;;13.65;43.96
13124;BME280;6627;50.920;12.050;2023-04-26T01:20:49;98193.41;;;13.18;45.70
13124;BME280;6627;50.920;12.050;2023-04-26T01:23:19;98332.53;;;14.33;43.58
13124;BME280;6627;50.920;12.050;2023-04-26T01:25:47;98213.50;;;13.67;44.15
13124;BME280;6627;50.920;12.050;2023-04-26T01:28:15;98168.94;;;13.18;45.24
13124;BME280;6627;50.920;12.050;2023-04-26T01:30:42;98197.66;;;13.27;45.52
13124;BME280;6627;50.920;12.050;2023-04-26T01:33:09;98287.97;;;13.83;45.21
13124;BME280;6627;50.920;12.050;2023-04-26T01:35:36;98318.34;;;14.06;44.82
13124;BME280;6627;50.920;12.050;2023-04-26T01:38:03;98163.47;;;12.97;46.02
13124;BME280;6627;50.920;12.050;2023-04-26T01:40:32;98094.13;;;12.49;46.61
13124;BME280;6627;50.920;12.050;2023-04-26T01:42:59;98143.94;;;12.53;47.48
13124;BME280;6627;50.920;12.050;2023-04-26T01:45:28;98102.19;;;12.36;47.38
13124;BME280;6627;50.920;12.050;2023-04-26T01:47:55;98145.00;;;12.60;47.18
13124;BME280;6627;50.920;12.050;2023-04-26T01:50:23;98223.94;;;12.94;47.64
13124;BME280;6627;50.920;12.050;2023-04-26T01:52:50;98146.81;;;12.48;47.73
13124;BME280;6627;50.920;12.050;2023-04-26T01:55:17;98241.09;;;13.15;46.69
13124;BME280;6627;50.920;12.050;2023-04-26T01:57:46;98209.31;;;12.77;47.47
13124;BME280;6627;50.920;12.050;2023-04-26T02:00:14;98089.09;;;12.00;48.10
13124;BME280;6627;50.920;12.050;2023-04-26T02:02:41;98060.78;;;11.63;48.88
13124;BME280;6627;50.920;12.050;2023-04-26T02:05:10;98028.31;;;11.37;49.29
13124;BME280;6627;50.920;12.050;2023-04-26T02:07:38;98164.56;;;12.07;49.30
13124;BME280;6627;50.920;12.050;2023-04-26T02:10:07;98187.63;;;12.30;48.39
13124;BME280;6627;50.920;12.050;2023-04-26T02:12:34;98125.22;;;11.92;48.54
13124;BME280;6627;50.920;12.050;2023-04-26T02:15:05;98103.72;;;11.61;49.63
13124;BME280;6627;50.920;12.050;2023-04-26T02:17:32;98077.28;;;11.41;49.85
13124;BME280;6627;50.920;12.050;2023-04-26T02:20:00;98072.56;;;11.20;50.43
13124;BME280;6627;50.920;12.050;2023-04-26T02:22:29;98199.25;;;11.93;49.96
13124;BME280;6627;50.920;12.050;2023-04-26T02:24:56;98199.88;;;11.98;49.29
13124;BME280;6627;50.920;12.050;2023-04-26T02:27:23;98144.59;;;11.56;49.88
13124;BME280;6627;50.920;12.050;2023-04-26T02:29:52;98163.41;;;11.61;49.92
13124;BME280;6627;50.920;12.050;2023-04-26T02:32:20;98119.72;;;11.36;50.13
13124;BME280;6627;50.920;12.050;2023-04-26T02:34:47;98179.81;;;11.73;49.90
13124;BME280;6627;50.920;12.050;2023-04-26T02:37:14;98162.41;;;11.74;49.53
13124;BME280;6627;50.920;12.050;2023-04-26T02:39:42;98100.91;;;11.14;50.05
13124;BME280;6627;50.920;12.050;2023-04-26T02:42:10;98119.72;;;11.36;49.76
13124;BME280;6627;50.920;12.050;2023-04-26T02:44:37;98110.00;;;11.18;50.49
13124;BME280;6627;50.920;12.050;2023-04-26T02:47:04;98203.91;;;11.75;50.14
13124;BME280;6627;50.920;12.050;2023-04-26T02:49:33;98089.47;;;11.00;50.68
13124;BME280;6627;50.920;12.050;2023-04-26T02:52:00;98186.69;;;11.62;50.11
13124;BME280;6627;50.920;12.050;2023-04-26T02:54:27;98124.06;;;11.20;50.36
13124;BME280;6627;50.920;12.050;2023-04-26T02:56:56;98076.38;;;10.84;50.65
13124;BME280;6627;50.920;12.050;2023-04-26T02:59:24;98043.22;;;10.53;51.33
13124;BME280;6627;50.920;12.050;2023-04-26T03:01:52;98100.63;;;10.98;50.83
13124;BME280;6627;50.920;12.050;2023-04-26T03:04:19;98148.28;;;11.17;51.09
13124;BME280;6627;50.920;12.050;2023-04-26T03:06:47;98131.84;;;11.13;50.27
13124;BME280;6627;50.920;12.050;2023-04-26T03:09:15;98142.38;;;11.23;50.52
13124;BME280;6627;50.920;12.050;2023-04-26T03:11:42;98112.41;;;10.94;50.46
13124;BME280;6627;50.920;12.050;2023-04-26T03:14:09;98089.28;;;10.61;51.10
13124;BME280;6627;50.920;12.050;2023-04-26T03:16:41;98084.97;;;10.52;51.37
13124;BME280;6627;50.920;12.050;2023-04-26T03:19:08;98143.03;;;11.03;50.82
13124;BME280;6627;50.920;12.050;2023-04-26T03:21:35;98136.94;;;11.06;50.50
13124;BME280;6627;50.920;12.050;2023-04-26T03:24:05;98133.44;;;11.14;49.50
13124;BME280;6627;50.920;12.050;2023-04-26T03:26:32;98128.69;;;10.94;50.08
13124;BME280;6627;50.920;12.050;2023-04-26T03:29:00;98111.09;;;10.65;50.82
13124;BME280;6627;50.920;12.050;2023-04-26T03:31:28;98152.09;;;10.98;50.19
13124;BME280;6627;50.920;12.050;2023-04-26T03:33:57;98107.63;;;10.73;50.44
13124;BME280;6627;50.920;12.050;2023-04-26T03:36:24;98258.78;;;11.72;49.88
13124;BME280;6627;50.920;12.050;2023-04-26T03:38:53;98118.13;;;11.01;48.98
13124;BME280;6627;50.920;12.050;2023-04-26T03:41:22;98054.28;;;10.08;51.52
13124;BME280;6627;50.920;12.050;2023-04-26T03:43:49;98062.81;;;10.41;50.35
13124;BME280;6627;50.920;12.050;2023-04-26T03:46:17;98131.59;;;10.31;52.13
13124;BME280;6627;50.920;12.050;2023-04-26T03:48:44;98094.00;;;10.39;51.05
13124;BME280;6627;50.920;12.050;2023-04-26T03:51:12;98147.75;;;10.89;49.91
13124;BME280;6627;50.920;12.050;2023-04-26T03:53:39;98108.03;;;10.32;51.26
13124;BME280;6627;50.920;12.050;2023-04-26T03:56:07;98174.75;;;10.37;52.57
13124;BME280;6627;50.920;12.050;2023-04-26T03:58:35;98167.78;;;10.53;51.89
13124;BME280;6627;50.920;12.050;2023-04-26T04:01:02;98072.19;;;9.95;52.36
13124;BME280;6627;50.920;12.050;2023-04-26T04:03:30;98106.34;;;10.22;52.07
13124;BME280;6627;50.920;12.050;2023-04-26T04:05:57;98254.78;;;11.17;50.65
13124;BME280;6627;50.920;12.050;2023-04-26T04:08:24;98139.06;;;10.34;51.40
13124;BME280;6627;50.920;12.050;2023-04-26T04:10:51;98148.47;;;10.37;51.29
13124;BME280;6627;50.920;12.050;2023-04-26T04:13:19;98179.97;;;10.81;49.99
13124;BME280;6627;50.920;12.050;2023-04-26T04:15:48;98255.72;;;11.21;49.84
13124;BME280;6627;50.920;12.050;2023-04-26T04:18:15;98265.66;;;11.43;49.49
13124;BME280;6627;50.920;12.050;2023-04-26T04:20:43;98260.03;;;11.22;50.13
13124;BME280;6627;50.920;12.050;2023-04-26T04:23:10;98262.94;;;11.34;49.35
13124;BME280;6627;50.920;12.050;2023-04-26T04:25:38;98191.09;;;10.89;50.18
13124;BME280;6627;50.920;12.050;2023-04-26T04:28:05;98160.44;;;10.45;50.91
13124;BME280;6627;50.920;12.050;2023-04-26T04:30:33;98277.28;;;11.44;49.52
13124;BME280;6627;50.920;12.050;2023-04-26T04:33:02;98241.66;;;11.02;50.44
13124;BME280;6627;50.920;12.050;2023-04-26T04:35:31;98161.25;;;10.45;50.60
13124;BME280;6627;50.920;12.050;2023-04-26T04:37:59;98151.16;;;10.28;51.18
13124;BME280;6627;50.920;12.050;2023-04-26T04:40:27;98210.63;;;10.51;51.45
13124;BME280;6627;50.920;12.050;2023-04-26T04:42:54;98227.59;;;10.82;50.37
13124;BME280;6627;50.920;12.050;2023-04-26T04:45:21;98282.06;;;11.38;49.78
13124;BME280;6627;50.920;12.050;2023-04-26T04:47:48;98256.50;;;11.13;50.06
13124;BME280;6627;50.920;12.050;2023-04-26T04:50:17;98214.38;;;10.81;50.26
13124;BME280;6627;50.920;12.050;2023-04-26T04:52:45;98169.59;;;10.26;51.45
13124;BME280;6627;50.920;12.050;2023-04-26T04:55:13;98214.16;;;10.60;50.90
13124;BME280;6627;50.920;12.050;2023-04-26T04:57:40;98287.47;;;11.21;50.40
13124;BME280;6627;50.920;12.050;2023-04-26T05:00:09;98280.91;;;11.13;50.11
13124;BME280;6627;50.920;12.050;2023-04-26T05:02:37;98151.75;;;10.25;50.95
13124;BME280;6627;50.920;12.050;2023-04-26T05:05:06;98376.84;;;11.52;51.37
13124;BME280;6627;50.920;12.050;2023-04-26T05:07:35;98266.38;;;11.09;49.81
13124;BME280;6627;50.920;12.050;2023-04-26T05:10:03;98291.00;;;11.39;49.40
13124;BME280;6627;50.920;12.050;2023-04-26T05:12:30;98289.78;;;10.96;50.71
13124;BME280;6627;50.920;12.050;2023-04-26T05:14:58;98442.88;;;12.30;48.91
13124;BME280;6627;50.920;12.050;2023-04-26T05:17:25;98277.25;;;11.26;49.47
13124;BME280;6627;50.920;12.050;2023-04-26T05:19:52;98340.06;;;11.28;50.76
13124;BME280;6627;50.920;12.050;2023-04-26T05:22:19;98433.44;;;12.02;49.87
13124;BME280;6627;50.920;12.050;2023-04-26T05:24:48;98431.22;;;12.38;48.50
13124;BME280;6627;50.920;12.050;2023-04-26T05:27:15;98478.84;;;12.62;47.87
13124;BME280;6627;50.920;12.050;2023-04-26T05:29:42;98411.91;;;12.40;47.57
13124;BME280;6627;50.920;12.050;2023-04-26T05:32:10;98476.25;;;12.57;47.94
13124;BME280;6627;50.920;12.050;2023-04-26T05:34:37;98502.94;;;12.90;47.24
13124;BME280;6627;50.920;12.050;2023-04-26T05:37:05;98498.91;;;13.13;46.03
13124;BME280;6627;50.920;12.050;2023-04-26T05:39:32;98457.34;;;13.04;45.64
13124;BME280;6627;50.920;12.050;2023-04-26T05:42:01;98492.44;;;13.44;44.77
13124;BME280;6627;50.920;12.050;2023-04-26T05:44:29;98507.69;;;13.74;44.29
13124;BME280;6627;50.920;12.050;2023-04-26T05:46:57;98359.53;;;12.86;45.24
13124;BME280;6627;50.920;12.050;2023-04-26T05:49:24;98374.09;;;12.82;45.79
13124;BME280;6627;50.920;12.050;2023-04-26T05:51:52;98360.84;;;12.80;45.68
13124;BME280;6627;50.920;12.050;2023-04-26T05:54:19;98259.84;;;12.31;45.53
13124;BME280;6627;50.920;12.050;2023-04-26T05:56:47;98345.41;;;12.55;46.83
13124;BME280;6627;50.920;12.050;2023-04-26T05:59:15;98482.50;;;13.48;45.87
13124;BME280;6627;50.920;12.050;2023-04-26T06:01:42;98392.88;;;13.13;45.48
13124;BME280;6627;50.920;12.050;2023-04-26T06:04:10;98400.38;;;13.16;45.05
13124;BME280;6627;50.920;12.050;2023-04-26T06:06:38;98435.22;;;13.31;44.96
13124;BME280;6627;50.920;12.050;2023-04-26T06:09:05;98503.16;;;13.87;44.45
13124;BME280;6627;50.920;12.050;2023-04-26T06:11:33;98391.09;;;13.17;44.58
13124;BME280;6627;50.920;12.050;2023-04-26T06:14:00;98288.66;;;12.62;45.13
13124;BME280;6627;50.920;12.050;2023-04-26T06:16:29;98450.44;;;13.62;44.56
13124;BME280;6627;50.920;12.050;2023-04-26T06:18:56;98502.50;;;14.41;43.00
13124;BME280;6627;50.920;12.050;2023-04-26T06:21:24;98547.03;;;14.45;43.43
13124;BME280;6627;50.920;12.050;2023-04-26T06:23:51;98411.72;;;13.86;43.06
13124;BME280;6627;50.920;12.050;2023-04-26T06:26:19;98257.84;;;12.87;44.13
13124;BME280;6627;50.920;12.050;2023-04-26T06:28:46;98443.16;;;14.04;43.08
13124;BME280;6627;50.920;12.050;2023-04-26T06:31:13;98465.81;;;14.17;42.52
13124;BME280;6627;50.920;12.050;2023-04-26T06:33:41;98366.72;;;13.59;43.76
13124;BME280;6627;50.920;12.050;2023-04-26T06:36:10;98539.81;;;14.70;42.03
13124;BME280;6627;50.920;12.050;2023-04-26T06:38:38;98357.28;;;13.65;42.80
13124;BME280;6627;50.920;12.050;2023-04-26T06:41:05;98293.28;;;13.38;42.57
13124;BME280;6627;50.920;12.050;2023-04-26T06:43:33;98363.78;;;13.94;41.72
13124;BME280;6627;50.920;12.050;2023-04-26T06:46:00;98370.16;;;13.98;41.41
13124;BME280;6627;50.920;12.050;2023-04-26T06:48:27;98278.47;;;13.48;41.60
13124;BME280;6627;50.920;12.050;2023-04-26T06:50:56;98305.63;;;13.56;41.23
13124;BME280;6627;50.920;12.050;2023-04-26T06:53:23;98434.59;;;14.35;41.04
13124;BME280;6627;50.920;12.050;2023-04-26T06:55:51;98411.72;;;14.28;40.95
13124;BME280;6627;50.920;12.050;2023-04-26T06:58:22;98531.03;;;15.18;40.06
13124;BME280;6627;50.920;12.050;2023-04-26T07:00:49;98230.16;;;13.66;41.12
13124;BME280;6627;50.920;12.050;2023-04-26T07:03:17;98143.88;;;13.12;41.52
13124;BME280;6627;50.920;12.050;2023-04-26T07:05:44;98340.38;;;14.34;40.20
13124;BME280;6627;50.920;12.050;2023-04-26T07:08:12;98098.78;;;13.11;40.53
13124;BME280;6627;50.920;12.050;2023-04-26T07:10:40;98161.66;;;13.30;40.54
13124;BME280;6627;50.920;12.050;2023-04-26T07:13:07;98197.75;;;13.40;40.50
13124;BME280;6627;50.920;12.050;2023-04-26T07:15:34;98180.50;;;13.35;40.57
13124;BME280;6627;50.920;12.050;2023-04-26T07:18:02;98324.59;;;14.07;40.33
13124;BME280;6627;50.920;12.050;2023-04-26T07:20:29;98429.72;;;14.95;39.32
13124;BME280;6627;50.920;12.050;2023-04-26T07:22:57;98393.88;;;14.72;39.59
13124;BME280;6627;50.920;12.050;2023-04-26T07:25:25;98290.44;;;14.30;39.27
13124;BME280;6627;50.920;12.050;2023-04-26T07:27:53;98298.13;;;14.28;39.93
13124;BME280;6627;50.920;12.050;2023-04-26T07:30:20;98274.22;;;14.01;40.26
13124;BME280;6627;50.920;12.050;2023-04-26T07:32:47;98357.53;;;14.68;39.12
13124;BME280;6627;50.920;12.050;2023-04-26T07:35:14;98287.00;;;14.21;39.57
13124;BME280;6627;50.920;12.050;2023-04-26T07:37:42;98304.59;;;14.57;38.95
13124;BME280;6627;50.920;12.050;2023-04-26T07:40:11;98203.16;;;13.81;39.96
13124;BME280;6627;50.920;12.050;2023-04-26T07:42:41;98272.38;;;14.26;38.84
13124;BME280;6627;50.920;12.050;2023-04-26T07:45:09;98453.34;;;15.36;38.44
13124;BME280;6627;50.920;12.050;2023-04-26T07:47:37;98366.56;;;15.18;37.55
13124;BME280;6627;50.920;12.050;2023-04-26T07:50:05;98546.91;;;16.44;36.45
13124;BME280;6627;50.920;12.050;2023-04-26T07:52:33;98047.34;;;14.21;36.97
13124;BME280;6627;50.920;12.050;2023-04-26T07:55:00;98242.13;;;15.13;36.24
13124;BME280;6627;50.920;12.050;2023-04-26T07:57:28;98123.56;;;14.46;36.98
13124;BME280;6627;50.920;12.050;2023-04-26T07:59:56;98153.78;;;14.65;36.37
13124;BME280;6627;50.920;12.050;2023-04-26T08:02:24;98421.47;;;16.14;35.57
13124;BME280;6627;50.920;12.050;2023-04-26T08:04:52;98368.25;;;15.96;35.72
13124;BME280;6627;50.920;12.050;2023-04-26T08:07:20;98264.78;;;15.66;35.54
13124;BME280;6627;50.920;12.050;2023-04-26T08:09:48;98160.25;;;15.37;35.06
13124;BME280;6627;50.920;12.050;2023-04-26T08:12:15;98239.28;;;15.62;35.55
13124;BME280;6627;50.920;12.050;2023-04-26T08:14:42;98356.44;;;16.20;34.70
13124;BME280;6627;50.920;12.050;2023-04-26T08:17:11;98344.63;;;16.44;34.37
13124;BME280;6627;50.920;12.050;2023-04-26T08:19:39;98348.59;;;16.74;33.25
13124;BME280;6627;50.920;12.050;2023-04-26T08:22:06;98221.09;;;16.38;33.10
13124;BME280;6627;50.920;12.050;2023-04-26T08:24:34;98051.59;;;15.71;32.89
13124;BME280;6627;50.920;12.050;2023-04-26T08:27:01;97987.09;;;15.35;33.31
13124;BME280;6627;50.920;12.050;2023-04-26T08:29:28;97988.69;;;15.52;32.60
13124;BME280;6627;50.920;12.050;2023-04-26T08:31:56;98036.63;;;15.65;33.19
13124;BME280;6627;50.920;12.050;2023-04-26T08:34:24;98181.84;;;16.62;32.07
13124;BME280;6627;50.920;12.050;2023-04-26T08:36:53;97922.16;;;15.41;32.83
13124;BME280;6627;50.920;12.050;2023-04-26T08:39:20;98185.72;;;16.61;32.91
13124;BME280;6627;50.920;12.050;2023-04-26T08:41:52;97905.44;;;15.26;33.20
13124;BME280;6627;50.920;12.050;2023-04-26T08:44:22;97867.31;;;14.82;33.97
13124;BME280;6627;50.920;12.050;2023-04-26T08:47:03;98081.13;;;15.97;33.21
13124;BME280;6627;50.920;12.050;2023-04-26T08:49:40;98080.78;;;15.99;33.39
13124;BME280;6627;50.920;12.050;2023-04-26T08:52:09;98063.81;;;15.61;34.14
13124;BME280;6627;50.920;12.050;2023-04-26T08:54:38;97971.63;;;15.39;33.54
13124;BME280;6627;50.920;12.050;2023-04-26T08:57:07;98022.34;;;15.56;33.86
13124;BME280;6627;50.920;12.050;2023-04-26T08:59:36;98209.63;;;16.48;32.88
13124;BME280;6627;50.920;12.050;2023-04-26T09:02:06;98095.75;;;16.05;32.62
13124;BME280;6627;50.920;12.050;2023-04-26T09:04:33;98258.59;;;17.01;31.89
13124;BME280;6627;50.920;12.050;2023-04-26T09:07:03;98019.03;;;15.78;33.01
13124;BME280;6627;50.920;12.050;2023-04-26T09:09:35;97775.59;;;14.90;32.34
13124;BME280;6627;50.920;12.050;2023-04-26T09:12:04;98090.91;;;16.14;33.08
13124;BME280;6627;50.920;12.050;2023-04-26T09:14:31;97997.44;;;15.89;32.44
13124;BME280;6627;50.920;12.050;2023-04-26T09:17:00;97915.38;;;15.34;32.87
13124;BME280;6627;50.920;12.050;2023-04-26T09:19:38;97944.84;;;15.45;33.17
13124;BME280;6627;50.920;12.050;2023-04-26T09:22:09;98100.84;;;16.22;32.87
13124;BME280;6627;50.920;12.050;2023-04-26T09:24:46;98006.78;;;15.88;32.18
13124;BME280;6627;50.920;12.050;2023-04-26T09:27:14;98006.88;;;15.92;32.22
13124;BME280;6627;50.920;12.050;2023-04-26T09:29:57;97983.53;;;15.94;31.46
13124;BME280;6627;50.920;12.050;2023-04-26T09:32:25;97983.63;;;15.66;32.82
13124;BME280;6627;50.920;12.050;2023-04-26T09:34:54;98067.81;;;15.96;33.40
13124;BME280;6627;50.920;12.050;2023-04-26T09:37:22;98003.09;;;15.64;33.66
13124;BME280;6627;50.920;12.050;2023-04-26T09:39:49;98072.59;;;15.99;33.72
13124;BME280;6627;50.920;12.050;2023-04-26T09:42:17;98212.44;;;16.68;32.96
13124;BME280;6627;50.920;12.050;2023-04-26T09:44:44;98037.69;;;16.08;31.93
13124;BME280;6627;50.920;12.050;2023-04-26T09:47:12;98145.94;;;16.79;30.99
13124;BME280;6627;50.920;12.050;2023-04-26T09:49:45;98205.47;;;17.02;31.83
13124;BME280;6627;50.920;12.050;2023-04-26T09:52:16;98120.22;;;16.64;31.79
13124;BME280;6627;50.920;12.050;2023-04-26T09:54:47;98039.88;;;16.02;32.86
13124;BME280;6627;50.920;12.050;2023-04-26T09:57:18;98085.53;;;16.18;33.73
13124;BME280;6627;50.920;12.050;2023-04-26T09:59:51;97949.84;;;16.06;31.66
13124;BME280;6627;50.920;12.050;2023-04-26T10:02:22;98155.66;;;17.12;31.31
13124;BME280;6627;50.920;12.050;2023-04-26T10:04:52;97987.41;;;16.28;31.09
13124;BME280;6627;50.920;12.050;2023-04-26T10:07:22;98087.94;;;16.89;30.28
13124;BME280;6627;50.920;12.050;2023-04-26T10:09:51;97992.38;;;16.42;30.87
13124;BME280;6627;50.920;12.050;2023-04-26T10:12:19;97935.03;;;16.07;31.16
13124;BME280;6627;50.920;12.050;2023-04-26T10:14:47;98012.34;;;16.27;32.05
13124;BME280;6627;50.920;12.050;2023-04-26T10:17:18;98037.44;;;16.68;31.29
13124;BME280;6627;50.920;12.050;2023-04-26T10:19:52;98074.16;;;16.82;31.29
13124;BME280;6627;50.920;12.050;2023-04-26T10:22:24;97962.38;;;16.26;31.32
13124;BME280;6627;50.920;12.050;2023-04-26T10:24:55;98057.56;;;16.95;30.47
13124;BME280;6627;50.920;12.050;2023-04-26T10:27:49;97928.44;;;16.27;30.77
13124;BME280;6627;50.920;12.050;2023-04-26T10:30:20;98120.22;;;17.19;30.22
13124;BME280;6627;50.920;12.050;2023-04-26T10:33:16;97806.16;;;15.82;30.24
13124;BME280;6627;50.920;12.050;2023-04-26T10:36:07;97923.28;;;16.42;30.61
13124;BME280;6627;50.920;12.050;2023-04-26T10:38:40;97954.06;;;16.38;31.12
13124;BME280;6627;50.920;12.050;2023-04-26T10:41:31;97845.47;;;15.97;30.62
13124;BME280;6627;50.920;12.050;2023-04-26T10:44:39;98038.44;;;17.14;29.54
13124;BME280;6627;50.920;12.050;2023-04-26T10:47:20;97824.63;;;16.08;30.08
13124;BME280;6627;50.920;12.050;2023-04-26T10:49:47;98043.75;;;17.07;29.91
13124;BME280;6627;50.920;12.050;2023-04-26T10:52:16;98149.31;;;17.66;29.39
13124;BME280;6627;50.920;12.050;2023-04-26T10:54:53;98153.09;;;17.77;29.31
13124;BME280;6627;50.920;12.050;2023-04-26T10:57:24;97931.78;;;16.75;30.21
13124;BME280;6627;50.920;12.050;2023-04-26T11:00:20;98007.03;;;17.08;30.06
13124;BME280;6627;50.920;12.050;2023-04-26T11:03:05;97940.97;;;16.86;29.75
13124;BME280;6627;50.920;12.050;2023-04-26T11:08:29;98004.16;;;17.20;29.51
13124;BME280;6627;50.920;12.050;2023-04-26T11:11:05;97776.44;;;16.38;29.21
13124;BME280;6627;50.920;12.050;2023-04-26T11:13:38;97649.38;;;15.83;28.53
13124;BME280;6627;50.920;12.050;2023-04-26T11:16:07;97794.56;;;16.27;28.57
13124;BME280;6627;50.920;12.050;2023-04-26T11:18:37;97819.00;;;16.39;28.48
13124;BME280;6627;50.920;12.050;2023-04-26T11:21:05;97998.47;;;17.52;28.15
13124;BME280;6627;50.920;12.050;2023-04-26T11:23:33;97833.38;;;16.56;28.86
13124;BME280;6627;50.920;12.050;2023-04-26T11:26:03;97853.22;;;16.72;28.75
13124;BME280;6627;50.920;12.050;2023-04-26T11:28:31;97870.38;;;16.92;28.37
13124;BME280;6627;50.920;12.050;2023-04-26T11:31:01;97939.47;;;17.31;28.33
13124;BME280;6627;50.920;12.050;2023-04-26T11:33:29;97713.94;;;16.14;29.34
13124;BME280;6627;50.920;12.050;2023-04-26T11:35:57;97800.44;;;16.49;29.58
13124;BME280;6627;50.920;12.050;2023-04-26T11:38:27;97875.34;;;16.86;29.26
13124;BME280;6627;50.920;12.050;2023-04-26T11:40:56;97895.06;;;16.96;29.48
13124;BME280;6627;50.920;12.050;2023-04-26T11:43:33;98102.22;;;17.76;30.25
13124;BME280;6627;50.920;12.050;2023-04-26T11:46:03;98045.75;;;17.49;30.04
13124;BME280;6627;50.920;12.050;2023-04-26T11:48:34;97907.66;;;17.00;29.15
13124;BME280;6627;50.920;12.050;2023-04-26T11:51:03;97806.34;;;16.31;30.27
13124;BME280;6627;50.920;12.050;2023-04-26T11:53:35;98074.41;;;17.55;29.99
13124;BME280;6627;50.920;12.050;2023-04-26T11:56:11;97765.66;;;16.26;30.25
13124;BME280;6627;50.920;12.050;2023-04-26T11:58:39;97719.38;;;15.72;31.01
13124;BME280;6627;50.920;12.050;2023-04-26T12:01:07;97885.31;;;16.75;29.95
13124;BME280;6627;50.920;12.050;2023-04-26T12:03:34;97809.16;;;16.15;30.98
13124;BME280;6627;50.920;12.050;2023-04-26T12:06:05;98077.88;;;17.32;30.69
13124;BME280;6627;50.920;12.050;2023-04-26T12:08:32;98135.75;;;17.73;29.88
13124;BME280;6627;50.920;12.050;2023-04-26T12:11:01;97946.50;;;16.71;31.08
13124;BME280;6627;50.920;12.050;2023-04-26T12:13:28;98004.75;;;17.10;30.39
13124;BME280;6627;50.920;12.050;2023-04-26T12:15:56;98222.31;;;18.39;29.35
13124;BME280;6627;50.920;12.050;2023-04-26T12:18:31;98146.91;;;18.26;28.58
13124;BME280;6627;50.920;12.050;2023-04-26T12:20:59;98009.94;;;17.80;27.99
13124;BME280;6627;50.920;12.050;2023-04-26T12:23:36;98043.38;;;18.16;27.13
13124;BME280;6627;50.920;12.050;2023-04-26T12:26:06;97879.88;;;17.48;27.85
13124;BME280;6627;50.920;12.050;2023-04-26T12:28:35;97861.03;;;17.43;27.98
13124;BME280;6627;50.920;12.050;2023-04-26T12:31:03;98047.59;;;18.36;27.22
13124;BME280;6627;50.920;12.050;2023-04-26T12:33:33;98088.50;;;18.49;27.50
13124;BME280;6627;50.920;12.050;2023-04-26T12:36:06;97953.03;;;17.97;27.88
13124;BME280;6627;50.920;12.050;2023-04-26T12:38:34;97794.69;;;17.26;28.46
13124;BME280;6627;50.920;12.050;2023-04-26T12:41:01;97966.63;;;18.16;27.54
13124;BME280;6627;50.920;12.050;2023-04-26T12:43:29;97712.34;;;17.05;27.49
13124;BME280;6627;50.920;12.050;2023-04-26T12:45:56;97842.19;;;17.64;27.36
13124;BME280;6627;50.920;12.050;2023-04-26T12:48:23;97742.03;;;17.06;27.80
13124;BME280;6627;50.920;12.050;2023-04-26T12:50:52;97867.16;;;17.59;27.93
13124;BME280;6627;50.920;12.050;2023-04-26T12:53:19;97809.03;;;17.43;27.52
13124;BME280;6627;50.920;12.050;2023-04-26T12:55:47;97901.94;;;17.81;27.91
13124;BME280;6627;50.920;12.050;2023-04-26T12:58:14;97916.44;;;17.82;28.04
13124;BME280;6627;50.920;12.050;2023-04-26T13:00:41;97920.16;;;17.97;27.54
13124;BME280;6627;50.920;12.050;2023-04-26T13:03:08;97846.09;;;17.63;27.30
13124;BME280;6627;50.920;12.050;2023-04-26T13:05:37;97910.63;;;17.87;27.60
13124;BME280;6627;50.920;12.050;2023-04-26T13:08:05;97906.94;;;18.02;27.18
13124;BME280;6627;50.920;12.050;2023-04-26T13:10:32;97643.44;;;16.96;26.46
13124;BME280;6627;50.920;12.050;2023-04-26T13:13:00;97693.59;;;17.07;26.79